Terminal Aerodrome Forecast
Issued by NWS Charleston, WV

Current Version | Previous Version | Text Only | Print | Product List | Glossary Off
Versions: 1 2 3 4 5 6 7 8 9 10 11 12 13 14 15 16 17

000
FTUS41 KRLX 251100
TAFEKN
TAF
KEKN 251122Z 2512/2612 26012G20KT P6SM OVC035
      TEMPO 2512/2514 BKN025
     FM251400 27013G20KT P6SM OVC028
     FM251900 27010G15KT P6SM BKN040
     FM252300 26006KT P6SM BKN035
     FM260500 00000KT P6SM BKN200
     FM260800 00000KT 6SM BR SCT250=

USA.gov is the U.S. government's official web portal to all federal, state and local government web resources and services.